sensor_id;sensor_type;location;lat;lon;timestamp;P1;durP1;ratioP1;P2;durP2;ratioP2
34317;SDS011;20582;52.196;20.952;2022-07-17T00:01:05;14.65;;;4.75;;
34317;SDS011;20582;52.196;20.952;2022-07-17T00:03:31;9.40;;;4.55;;
34317;SDS011;20582;52.196;20.952;2022-07-17T00:05:57;12.70;;;4.45;;
34317;SDS011;20582;52.196;20.952;2022-07-17T00:08:23;12.25;;;4.50;;
34317;SDS011;20582;52.196;20.952;2022-07-17T00:10:50;9.77;;;4.25;;
34317;SDS011;20582;52.196;20.952;2022-07-17T00:13:16;10.13;;;4.50;;
34317;SDS011;20582;52.196;20.952;2022-07-17T00:15:42;11.48;;;4.63;;
34317;SDS011;20582;52.196;20.952;2022-07-17T00:18:08;9.75;;;4.30;;
34317;SDS011;20582;52.196;20.952;2022-07-17T00:20:34;12.55;;;4.65;;
34317;SDS011;20582;52.196;20.952;2022-07-17T00:23:00;9.57;;;4.38;;
34317;SDS011;20582;52.196;20.952;2022-07-17T00:25:26;11.43;;;5.15;;
34317;SDS011;20582;52.196;20.952;2022-07-17T00:27:52;9.23;;;4.88;;
34317;SDS011;20582;52.196;20.952;2022-07-17T00:30:19;10.25;;;5.28;;
34317;SDS011;20582;52.196;20.952;2022-07-17T00:32:45;9.50;;;5.07;;
34317;SDS011;20582;52.196;20.952;2022-07-17T00:35:11;13.85;;;5.10;;
34317;SDS011;20582;52.196;20.952;2022-07-17T00:37:41;13.90;;;5.10;;
34317;SDS011;20582;52.196;20.952;2022-07-17T00:40:08;12.50;;;4.90;;
34317;SDS011;20582;52.196;20.952;2022-07-17T00:42:34;9.02;;;5.65;;
34317;SDS011;20582;52.196;20.952;2022-07-17T00:45:00;10.60;;;5.32;;
34317;SDS011;20582;52.196;20.952;2022-07-17T00:47:26;15.05;;;5.70;;
34317;SDS011;20582;52.196;20.952;2022-07-17T00:49:52;13.82;;;5.82;;
34317;SDS011;20582;52.196;20.952;2022-07-17T00:52:18;11.38;;;5.50;;
34317;SDS011;20582;52.196;20.952;2022-07-17T00:54:45;12.35;;;6.00;;
34317;SDS011;20582;52.196;20.952;2022-07-17T00:57:13;14.05;;;5.85;;
34317;SDS011;20582;52.196;20.952;2022-07-17T00:59:39;10.40;;;5.32;;
34317;SDS011;20582;52.196;20.952;2022-07-17T01:02:06;12.65;;;5.60;;
34317;SDS011;20582;52.196;20.952;2022-07-17T01:04:32;10.02;;;5.55;;
34317;SDS011;20582;52.196;20.952;2022-07-17T01:06:59;12.73;;;5.40;;
34317;SDS011;20582;52.196;20.952;2022-07-17T01:09:26;12.48;;;5.72;;
34317;SDS011;20582;52.196;20.952;2022-07-17T01:11:52;12.60;;;5.88;;
34317;SDS011;20582;52.196;20.952;2022-07-17T01:14:18;13.25;;;5.95;;
34317;SDS011;20582;52.196;20.952;2022-07-17T01:16:45;11.32;;;5.75;;
34317;SDS011;20582;52.196;20.952;2022-07-17T01:19:11;12.18;;;4.93;;
34317;SDS011;20582;52.196;20.952;2022-07-17T01:21:41;10.52;;;5.90;;
34317;SDS011;20582;52.196;20.952;2022-07-17T01:24:07;14.55;;;6.00;;
34317;SDS011;20582;52.196;20.952;2022-07-17T01:26:33;20.10;;;6.28;;
34317;SDS011;20582;52.196;20.952;2022-07-17T01:28:59;14.90;;;6.15;;
34317;SDS011;20582;52.196;20.952;2022-07-17T01:31:25;13.88;;;6.05;;
34317;SDS011;20582;52.196;20.952;2022-07-17T01:33:51;15.05;;;5.90;;
34317;SDS011;20582;52.196;20.952;2022-07-17T01:36:21;14.02;;;6.20;;
34317;SDS011;20582;52.196;20.952;2022-07-17T01:38:48;14.35;;;5.82;;
34317;SDS011;20582;52.196;20.952;2022-07-17T01:41:14;15.32;;;5.63;;
34317;SDS011;20582;52.196;20.952;2022-07-17T01:43:40;14.10;;;6.10;;
34317;SDS011;20582;52.196;20.952;2022-07-17T01:46:06;13.18;;;6.25;;
34317;SDS011;20582;52.196;20.952;2022-07-17T01:48:32;11.95;;;5.85;;
34317;SDS011;20582;52.196;20.952;2022-07-17T01:50:58;12.77;;;6.10;;
34317;SDS011;20582;52.196;20.952;2022-07-17T01:53:24;13.77;;;5.97;;
34317;SDS011;20582;52.196;20.952;2022-07-17T01:55:51;15.02;;;6.20;;
34317;SDS011;20582;52.196;20.952;2022-07-17T01:58:17;12.05;;;6.32;;
34317;SDS011;20582;52.196;20.952;2022-07-17T02:00:43;15.82;;;6.68;;
34317;SDS011;20582;52.196;20.952;2022-07-17T02:03:09;13.45;;;6.43;;
34317;SDS011;20582;52.196;20.952;2022-07-17T02:05:35;12.90;;;6.90;;
34317;SDS011;20582;52.196;20.952;2022-07-17T02:08:01;13.73;;;7.35;;
34317;SDS011;20582;52.196;20.952;2022-07-17T02:10:27;15.32;;;6.78;;
34317;SDS011;20582;52.196;20.952;2022-07-17T02:12:53;14.20;;;6.60;;
34317;SDS011;20582;52.196;20.952;2022-07-17T02:15:20;13.38;;;6.80;;
34317;SDS011;20582;52.196;20.952;2022-07-17T02:17:46;17.77;;;7.60;;
34317;SDS011;20582;52.196;20.952;2022-07-17T02:20:12;16.77;;;7.53;;
34317;SDS011;20582;52.196;20.952;2022-07-17T02:22:38;15.30;;;7.53;;
34317;SDS011;20582;52.196;20.952;2022-07-17T02:25:05;16.30;;;7.68;;
34317;SDS011;20582;52.196;20.952;2022-07-17T02:27:31;12.25;;;7.47;;
34317;SDS011;20582;52.196;20.952;2022-07-17T02:29:57;16.23;;;8.10;;
34317;SDS011;20582;52.196;20.952;2022-07-17T02:32:23;14.98;;;8.07;;
34317;SDS011;20582;52.196;20.952;2022-07-17T02:34:50;18.38;;;7.82;;
34317;SDS011;20582;52.196;20.952;2022-07-17T02:37:16;17.30;;;7.97;;
34317;SDS011;20582;52.196;20.952;2022-07-17T02:39:42;17.27;;;8.38;;
34317;SDS011;20582;52.196;20.952;2022-07-17T02:42:27;18.55;;;7.88;;
34317;SDS011;20582;52.196;20.952;2022-07-17T02:44:53;20.25;;;8.70;;
34317;SDS011;20582;52.196;20.952;2022-07-17T02:47:20;18.42;;;8.88;;
34317;SDS011;20582;52.196;20.952;2022-07-17T02:49:47;19.95;;;8.43;;
34317;SDS011;20582;52.196;20.952;2022-07-17T02:52:14;16.85;;;9.05;;
34317;SDS011;20582;52.196;20.952;2022-07-17T02:54:40;18.77;;;8.95;;
34317;SDS011;20582;52.196;20.952;2022-07-17T02:57:06;22.27;;;9.10;;
34317;SDS011;20582;52.196;20.952;2022-07-17T02:59:32;21.23;;;9.07;;
34317;SDS011;20582;52.196;20.952;2022-07-17T03:01:58;16.98;;;8.55;;
34317;SDS011;20582;52.196;20.952;2022-07-17T03:04:24;16.58;;;8.52;;
34317;SDS011;20582;52.196;20.952;2022-07-17T03:06:50;17.27;;;8.00;;
34317;SDS011;20582;52.196;20.952;2022-07-17T03:09:16;16.45;;;9.30;;
34317;SDS011;20582;52.196;20.952;2022-07-17T03:11:42;16.25;;;8.90;;
34317;SDS011;20582;52.196;20.952;2022-07-17T03:14:08;16.90;;;8.65;;
34317;SDS011;20582;52.196;20.952;2022-07-17T03:16:34;16.98;;;9.07;;
34317;SDS011;20582;52.196;20.952;2022-07-17T03:19:01;20.77;;;9.23;;
34317;SDS011;20582;52.196;20.952;2022-07-17T03:21:26;18.65;;;8.30;;
34317;SDS011;20582;52.196;20.952;2022-07-17T03:23:52;15.18;;;7.82;;
34317;SDS011;20582;52.196;20.952;2022-07-17T03:26:18;16.60;;;8.25;;
34317;SDS011;20582;52.196;20.952;2022-07-17T03:28:44;18.58;;;8.10;;
34317;SDS011;20582;52.196;20.952;2022-07-17T03:31:10;19.00;;;8.07;;
34317;SDS011;20582;52.196;20.952;2022-07-17T03:33:36;15.13;;;8.05;;
34317;SDS011;20582;52.196;20.952;2022-07-17T03:36:02;16.90;;;8.40;;
34317;SDS011;20582;52.196;20.952;2022-07-17T03:38:28;17.40;;;7.97;;
34317;SDS011;20582;52.196;20.952;2022-07-17T03:40:54;17.45;;;8.43;;
34317;SDS011;20582;52.196;20.952;2022-07-17T03:43:20;18.73;;;8.63;;
34317;SDS011;20582;52.196;20.952;2022-07-17T03:45:46;16.48;;;8.55;;
34317;SDS011;20582;52.196;20.952;2022-07-17T03:48:12;19.05;;;9.73;;
34317;SDS011;20582;52.196;20.952;2022-07-17T03:50:38;23.35;;;8.50;;
34317;SDS011;20582;52.196;20.952;2022-07-17T03:53:04;17.63;;;8.82;;
34317;SDS011;20582;52.196;20.952;2022-07-17T03:55:30;24.08;;;9.02;;
34317;SDS011;20582;52.196;20.952;2022-07-17T03:57:56;21.30;;;9.65;;
34317;SDS011;20582;52.196;20.952;2022-07-17T04:00:22;16.35;;;8.02;;
34317;SDS011;20582;52.196;20.952;2022-07-17T04:02:48;17.80;;;8.50;;
34317;SDS011;20582;52.196;20.952;2022-07-17T04:05:14;14.02;;;7.40;;
34317;SDS011;20582;52.196;20.952;2022-07-17T04:07:41;15.90;;;7.70;;
34317;SDS011;20582;52.196;20.952;2022-07-17T04:10:08;15.77;;;6.88;;
34317;SDS011;20582;52.196;20.952;2022-07-17T04:12:34;14.25;;;7.05;;
34317;SDS011;20582;52.196;20.952;2022-07-17T04:15:00;15.85;;;7.18;;
34317;SDS011;20582;52.196;20.952;2022-07-17T04:17:26;16.38;;;6.95;;
34317;SDS011;20582;52.196;20.952;2022-07-17T04:19:52;15.40;;;6.50;;
34317;SDS011;20582;52.196;20.952;2022-07-17T04:22:18;17.80;;;6.30;;
34317;SDS011;20582;52.196;20.952;2022-07-17T04:24:45;12.50;;;6.22;;
34317;SDS011;20582;52.196;20.952;2022-07-17T04:27:11;15.02;;;6.47;;
34317;SDS011;20582;52.196;20.952;2022-07-17T04:29:37;20.38;;;6.30;;
34317;SDS011;20582;52.196;20.952;2022-07-17T04:32:04;18.77;;;6.40;;
34317;SDS011;20582;52.196;20.952;2022-07-17T04:34:30;9.75;;;5.95;;
34317;SDS011;20582;52.196;20.952;2022-07-17T04:36:57;11.88;;;5.47;;
34317;SDS011;20582;52.196;20.952;2022-07-17T04:39:23;10.63;;;5.53;;
34317;SDS011;20582;52.196;20.952;2022-07-17T04:41:49;17.75;;;5.80;;
34317;SDS011;20582;52.196;20.952;2022-07-17T04:44:15;12.43;;;5.13;;
34317;SDS011;20582;52.196;20.952;2022-07-17T04:46:42;10.88;;;5.00;;
34317;SDS011;20582;52.196;20.952;2022-07-17T04:49:08;9.65;;;4.20;;
34317;SDS011;20582;52.196;20.952;2022-07-17T04:51:34;11.30;;;4.82;;
34317;SDS011;20582;52.196;20.952;2022-07-17T04:54:00;12.07;;;4.93;;
34317;SDS011;20582;52.196;20.952;2022-07-17T04:56:26;12.77;;;4.60;;
34317;SDS011;20582;52.196;20.952;2022-07-17T04:58:52;12.10;;;4.32;;
34317;SDS011;20582;52.196;20.952;2022-07-17T05:01:18;14.02;;;4.80;;
34317;SDS011;20582;52.196;20.952;2022-07-17T05:03:44;10.18;;;4.38;;
34317;SDS011;20582;52.196;20.952;2022-07-17T05:06:10;12.15;;;4.43;;
34317;SDS011;20582;52.196;20.952;2022-07-17T05:08:36;10.48;;;4.03;;
34317;SDS011;20582;52.196;20.952;2022-07-17T05:11:03;10.25;;;4.25;;
34317;SDS011;20582;52.196;20.952;2022-07-17T05:13:29;9.25;;;4.00;;
34317;SDS011;20582;52.196;20.952;2022-07-17T05:15:55;8.18;;;4.63;;
34317;SDS011;20582;52.196;20.952;2022-07-17T05:18:21;10.68;;;4.80;;
34317;SDS011;20582;52.196;20.952;2022-07-17T05:20:47;9.52;;;4.40;;
34317;SDS011;20582;52.196;20.952;2022-07-17T05:23:13;12.75;;;4.68;;
34317;SDS011;20582;52.196;20.952;2022-07-17T05:25:39;14.13;;;4.50;;
34317;SDS011;20582;52.196;20.952;2022-07-17T05:28:05;7.95;;;4.07;;
34317;SDS011;20582;52.196;20.952;2022-07-17T05:30:31;9.05;;;4.00;;
34317;SDS011;20582;52.196;20.952;2022-07-17T05:32:57;9.35;;;4.28;;
34317;SDS011;20582;52.196;20.952;2022-07-17T05:35:23;10.25;;;4.10;;
34317;SDS011;20582;52.196;20.952;2022-07-17T05:37:49;13.63;;;4.35;;
34317;SDS011;20582;52.196;20.952;2022-07-17T05:40:15;10.07;;;4.82;;
34317;SDS011;20582;52.196;20.952;2022-07-17T05:42:41;9.70;;;4.32;;
34317;SDS011;20582;52.196;20.952;2022-07-17T05:45:07;12.27;;;5.20;;
34317;SDS011;20582;52.196;20.952;2022-07-17T05:47:33;12.90;;;4.85;;
34317;SDS011;20582;52.196;20.952;2022-07-17T05:49:59;11.15;;;4.65;;
34317;SDS011;20582;52.196;20.952;2022-07-17T05:52:25;9.65;;;4.60;;
34317;SDS011;20582;52.196;20.952;2022-07-17T05:54:51;11.25;;;4.75;;
34317;SDS011;20582;52.196;20.952;2022-07-17T05:57:17;10.10;;;4.38;;
34317;SDS011;20582;52.196;20.952;2022-07-17T05:59:43;9.18;;;4.07;;
34317;SDS011;20582;52.196;20.952;2022-07-17T06:02:09;8.98;;;4.00;;
34317;SDS011;20582;52.196;20.952;2022-07-17T06:04:35;11.00;;;3.88;;
34317;SDS011;20582;52.196;20.952;2022-07-17T06:07:01;8.88;;;4.00;;
34317;SDS011;20582;52.196;20.952;2022-07-17T06:09:27;10.88;;;4.75;;
34317;SDS011;20582;52.196;20.952;2022-07-17T06:11:53;12.05;;;4.43;;
34317;SDS011;20582;52.196;20.952;2022-07-17T06:14:19;8.52;;;4.45;;
34317;SDS011;20582;52.196;20.952;2022-07-17T06:16:45;9.50;;;4.53;;
34317;SDS011;20582;52.196;20.952;2022-07-17T06:19:11;11.73;;;5.18;;
34317;SDS011;20582;52.196;20.952;2022-07-17T06:21:37;17.80;;;5.85;;
34317;SDS011;20582;52.196;20.952;2022-07-17T06:24:03;11.77;;;5.28;;
34317;SDS011;20582;52.196;20.952;2022-07-17T06:26:29;9.88;;;5.70;;
34317;SDS011;20582;52.196;20.952;2022-07-17T06:28:55;11.35;;;5.93;;
34317;SDS011;20582;52.196;20.952;2022-07-17T06:31:21;8.57;;;5.55;;
34317;SDS011;20582;52.196;20.952;2022-07-17T06:33:48;14.27;;;7.00;;
34317;SDS011;20582;52.196;20.952;2022-07-17T06:36:14;12.65;;;8.45;;
34317;SDS011;20582;52.196;20.952;2022-07-17T06:38:40;11.05;;;7.75;;
34317;SDS011;20582;52.196;20.952;2022-07-17T06:41:06;13.90;;;7.93;;
34317;SDS011;20582;52.196;20.952;2022-07-17T06:43:32;13.55;;;8.20;;
34317;SDS011;20582;52.196;20.952;2022-07-17T06:45:58;15.73;;;7.47;;
34317;SDS011;20582;52.196;20.952;2022-07-17T06:48:24;13.30;;;8.30;;
34317;SDS011;20582;52.196;20.952;2022-07-17T06:50:50;13.27;;;7.78;;
34317;SDS011;20582;52.196;20.952;2022-07-17T06:53:16;13.70;;;6.97;;
34317;SDS011;20582;52.196;20.952;2022-07-17T06:55:42;13.07;;;6.68;;
34317;SDS011;20582;52.196;20.952;2022-07-17T06:58:08;12.90;;;7.30;;
34317;SDS011;20582;52.196;20.952;2022-07-17T07:00:34;12.68;;;7.20;;
34317;SDS011;20582;52.196;20.952;2022-07-17T07:03:00;12.52;;;7.95;;
34317;SDS011;20582;52.196;20.952;2022-07-17T07:05:26;13.15;;;6.50;;
34317;SDS011;20582;52.196;20.952;2022-07-17T07:07:52;11.07;;;6.57;;
34317;SDS011;20582;52.196;20.952;2022-07-17T07:10:18;14.35;;;6.47;;
34317;SDS011;20582;52.196;20.952;2022-07-17T07:12:44;14.05;;;6.80;;
34317;SDS011;20582;52.196;20.952;2022-07-17T07:15:10;11.35;;;6.57;;
34317;SDS011;20582;52.196;20.952;2022-07-17T07:17:36;11.23;;;6.03;;
34317;SDS011;20582;52.196;20.952;2022-07-17T07:20:03;10.05;;;6.70;;
34317;SDS011;20582;52.196;20.952;2022-07-17T07:22:29;12.98;;;5.95;;
34317;SDS011;20582;52.196;20.952;2022-07-17T07:24:55;10.77;;;6.15;;
34317;SDS011;20582;52.196;20.952;2022-07-17T07:27:21;11.38;;;5.85;;
34317;SDS011;20582;52.196;20.952;2022-07-17T07:29:47;9.80;;;5.63;;
34317;SDS011;20582;52.196;20.952;2022-07-17T07:32:13;11.23;;;6.03;;
34317;SDS011;20582;52.196;20.952;2022-07-17T07:34:39;11.98;;;6.18;;
34317;SDS011;20582;52.196;20.952;2022-07-17T07:37:05;13.95;;;6.32;;
34317;SDS011;20582;52.196;20.952;2022-07-17T07:39:31;10.93;;;5.35;;
34317;SDS011;20582;52.196;20.952;2022-07-17T07:41:57;8.07;;;5.18;;
34317;SDS011;20582;52.196;20.952;2022-07-17T07:44:24;14.07;;;5.40;;
34317;SDS011;20582;52.196;20.952;2022-07-17T07:46:50;10.40;;;5.57;;
34317;SDS011;20582;52.196;20.952;2022-07-17T07:49:16;8.80;;;4.70;;
34317;SDS011;20582;52.196;20.952;2022-07-17T07:51:42;10.52;;;4.80;;
34317;SDS011;20582;52.196;20.952;2022-07-17T07:54:09;10.63;;;4.43;;
34317;SDS011;20582;52.196;20.952;2022-07-17T07:56:35;9.48;;;4.82;;
34317;SDS011;20582;52.196;20.952;2022-07-17T07:59:01;12.80;;;5.55;;
34317;SDS011;20582;52.196;20.952;2022-07-17T08:01:27;10.85;;;5.43;;
34317;SDS011;20582;52.196;20.952;2022-07-17T08:03:53;10.90;;;4.93;;
34317;SDS011;20582;52.196;20.952;2022-07-17T08:06:19;11.15;;;4.25;;
34317;SDS011;20582;52.196;20.952;2022-07-17T08:08:45;9.68;;;3.78;;
34317;SDS011;20582;52.196;20.952;2022-07-17T08:11:11;10.23;;;4.32;;
34317;SDS011;20582;52.196;20.952;2022-07-17T08:13:37;7.90;;;3.85;;
34317;SDS011;20582;52.196;20.952;2022-07-17T08:16:03;9.35;;;4.10;;
34317;SDS011;20582;52.196;20.952;2022-07-17T08:18:29;8.98;;;3.95;;
34317;SDS011;20582;52.196;20.952;2022-07-17T08:20:55;10.95;;;4.18;;
34317;SDS011;20582;52.196;20.952;2022-07-17T08:23:21;8.60;;;4.20;;
34317;SDS011;20582;52.196;20.952;2022-07-17T08:25:47;9.90;;;4.60;;
34317;SDS011;20582;52.196;20.952;2022-07-17T08:28:14;10.38;;;4.88;;
34317;SDS011;20582;52.196;20.952;2022-07-17T08:30:40;10.70;;;4.20;;
34317;SDS011;20582;52.196;20.952;2022-07-17T08:33:06;7.70;;;3.92;;
34317;SDS011;20582;52.196;20.952;2022-07-17T08:35:33;6.15;;;3.30;;
34317;SDS011;20582;52.196;20.952;2022-07-17T08:37:59;9.18;;;3.20;;
34317;SDS011;20582;52.196;20.952;2022-07-17T08:40:27;7.63;;;3.10;;
34317;SDS011;20582;52.196;20.952;2022-07-17T08:42:54;7.45;;;3.08;;
34317;SDS011;20582;52.196;20.952;2022-07-17T08:45:20;8.43;;;2.92;;
34317;SDS011;20582;52.196;20.952;2022-07-17T08:47:46;7.70;;;2.78;;
34317;SDS011;20582;52.196;20.952;2022-07-17T08:50:13;9.25;;;3.13;;
34317;SDS011;20582;52.196;20.952;2022-07-17T08:52:40;8.18;;;2.75;;
34317;SDS011;20582;52.196;20.952;2022-07-17T08:55:12;6.38;;;2.75;;
34317;SDS011;20582;52.196;20.952;2022-07-17T08:57:39;5.95;;;2.30;;
34317;SDS011;20582;52.196;20.952;2022-07-17T09:00:06;8.43;;;2.78;;
34317;SDS011;20582;52.196;20.952;2022-07-17T09:02:32;7.68;;;2.80;;
34317;SDS011;20582;52.196;20.952;2022-07-17T09:04:58;5.20;;;2.28;;
34317;SDS011;20582;52.196;20.952;2022-07-17T09:07:24;5.35;;;2.58;;
34317;SDS011;20582;52.196;20.952;2022-07-17T09:09:50;8.50;;;2.15;;
34317;SDS011;20582;52.196;20.952;2022-07-17T09:12:16;6.22;;;2.17;;
34317;SDS011;20582;52.196;20.952;2022-07-17T09:14:42;6.88;;;2.17;;
34317;SDS011;20582;52.196;20.952;2022-07-17T09:17:09;3.88;;;1.80;;
34317;SDS011;20582;52.196;20.952;2022-07-17T09:19:42;5.63;;;2.15;;
34317;SDS011;20582;52.196;20.952;2022-07-17T09:22:13;5.55;;;1.83;;
34317;SDS011;20582;52.196;20.952;2022-07-17T09:32:22;4.32;;;1.80;;
34317;SDS011;20582;52.196;20.952;2022-07-17T09:34:49;6.10;;;2.00;;
34317;SDS011;20582;52.196;20.952;2022-07-17T09:37:15;3.92;;;1.65;;
34317;SDS011;20582;52.196;20.952;2022-07-17T09:39:42;12.20;;;2.20;;
34317;SDS011;20582;52.196;20.952;2022-07-17T09:42:08;4.85;;;2.08;;
34317;SDS011;20582;52.196;20.952;2022-07-17T09:44:34;8.32;;;2.08;;
34317;SDS011;20582;52.196;20.952;2022-07-17T09:47:01;4.85;;;2.00;;
34317;SDS011;20582;52.196;20.952;2022-07-17T09:49:27;6.75;;;2.08;;
34317;SDS011;20582;52.196;20.952;2022-07-17T09:51:54;5.82;;;1.70;;
34317;SDS011;20582;52.196;20.952;2022-07-17T09:54:21;7.05;;;1.70;;
34317;SDS011;20582;52.196;20.952;2022-07-17T09:56:49;4.15;;;1.95;;
34317;SDS011;20582;52.196;20.952;2022-07-17T09:59:16;4.97;;;1.88;;
34317;SDS011;20582;52.196;20.952;2022-07-17T10:01:43;4.05;;;2.00;;
34317;SDS011;20582;52.196;20.952;2022-07-17T10:04:09;4.55;;;1.73;;
34317;SDS011;20582;52.196;20.952;2022-07-17T10:06:36;3.42;;;1.63;;
34317;SDS011;20582;52.196;20.952;2022-07-17T10:09:02;7.82;;;2.38;;
34317;SDS011;20582;52.196;20.952;2022-07-17T10:11:30;4.90;;;2.00;;
34317;SDS011;20582;52.196;20.952;2022-07-17T10:14:01;5.40;;;3.03;;
34317;SDS011;20582;52.196;20.952;2022-07-17T10:16:29;5.53;;;2.20;;
34317;SDS011;20582;52.196;20.952;2022-07-17T10:18:56;6.78;;;2.00;;
34317;SDS011;20582;52.196;20.952;2022-07-17T10:21:23;3.53;;;1.90;;
34317;SDS011;20582;52.196;20.952;2022-07-17T10:29:03;5.57;;;2.60;;
34317;SDS011;20582;52.196;20.952;2022-07-17T10:31:32;2.47;;;1.67;;
34317;SDS011;20582;52.196;20.952;2022-07-17T10:34:05;2.75;;;1.73;;
34317;SDS011;20582;52.196;20.952;2022-07-17T10:36:35;5.10;;;2.00;;
34317;SDS011;20582;52.196;20.952;2022-07-17T10:41:27;4.57;;;1.85;;
34317;SDS011;20582;52.196;20.952;2022-07-17T10:43:53;5.05;;;2.15;;
34317;SDS011;20582;52.196;20.952;2022-07-17T10:46:19;5.93;;;2.25;;
34317;SDS011;20582;52.196;20.952;2022-07-17T10:48:48;3.72;;;1.98;;
34317;SDS011;20582;52.196;20.952;2022-07-17T10:51:14;5.15;;;2.10;;
34317;SDS011;20582;52.196;20.952;2022-07-17T10:53:41;4.97;;;2.03;;
34317;SDS011;20582;52.196;20.952;2022-07-17T10:56:08;6.32;;;2.20;;
34317;SDS011;20582;52.196;20.952;2022-07-17T11:03:28;5.95;;;1.85;;
34317;SDS011;20582;52.196;20.952;2022-07-17T11:05:55;5.45;;;2.22;;
34317;SDS011;20582;52.196;20.952;2022-07-17T11:08:31;5.30;;;2.00;;
34317;SDS011;20582;52.196;20.952;2022-07-17T11:10:57;5.30;;;1.85;;
34317;SDS011;20582;52.196;20.952;2022-07-17T11:13:22;6.22;;;1.80;;
34317;SDS011;20582;52.196;20.952;2022-07-17T11:15:48;5.78;;;1.95;;
34317;SDS011;20582;52.196;20.952;2022-07-17T11:18:16;4.85;;;1.77;;
34317;SDS011;20582;52.196;20.952;2022-07-17T11:20:46;3.75;;;1.92;;
34317;SDS011;20582;52.196;20.952;2022-07-17T11:23:12;3.27;;;1.80;;
34317;SDS011;20582;52.196;20.952;2022-07-17T11:25:38;2.83;;;1.67;;
34317;SDS011;20582;52.196;20.952;2022-07-17T11:28:04;4.72;;;1.88;;
34317;SDS011;20582;52.196;20.952;2022-07-17T11:30:30;3.53;;;1.75;;
34317;SDS011;20582;52.196;20.952;2022-07-17T11:32:56;4.22;;;2.20;;
34317;SDS011;20582;52.196;20.952;2022-07-17T11:35:24;4.53;;;2.33;;
34317;SDS011;20582;52.196;20.952;2022-07-17T11:37:50;4.13;;;2.40;;
34317;SDS011;20582;52.196;20.952;2022-07-17T11:40:16;4.43;;;1.90;;
34317;SDS011;20582;52.196;20.952;2022-07-17T11:42:42;2.90;;;1.73;;
34317;SDS011;20582;52.196;20.952;2022-07-17T11:45:09;3.53;;;1.67;;
34317;SDS011;20582;52.196;20.952;2022-07-17T11:47:35;4.95;;;1.88;;
34317;SDS011;20582;52.196;20.952;2022-07-17T11:52:39;4.72;;;1.65;;
34317;SDS011;20582;52.196;20.952;2022-07-17T11:55:05;3.50;;;1.45;;
34317;SDS011;20582;52.196;20.952;2022-07-17T11:57:40;4.72;;;1.58;;
34317;SDS011;20582;52.196;20.952;2022-07-17T12:00:07;4.43;;;1.92;;
34317;SDS011;20582;52.196;20.952;2022-07-17T12:02:33;3.58;;;1.50;;
34317;SDS011;20582;52.196;20.952;2022-07-17T12:04:59;5.93;;;2.13;;
34317;SDS011;20582;52.196;20.952;2022-07-17T12:07:27;5.15;;;2.40;;
34317;SDS011;20582;52.196;20.952;2022-07-17T12:09:53;4.35;;;2.30;;
34317;SDS011;20582;52.196;20.952;2022-07-17T12:12:20;4.18;;;1.98;;
34317;SDS011;20582;52.196;20.952;2022-07-17T12:14:50;3.35;;;1.60;;
34317;SDS011;20582;52.196;20.952;2022-07-17T12:17:16;3.10;;;1.70;;
34317;SDS011;20582;52.196;20.952;2022-07-17T12:19:42;3.78;;;1.67;;
34317;SDS011;20582;52.196;20.952;2022-07-17T12:22:08;6.03;;;2.00;;
34317;SDS011;20582;52.196;20.952;2022-07-17T12:24:38;3.10;;;1.60;;
34317;SDS011;20582;52.196;20.952;2022-07-17T12:27:14;3.70;;;1.30;;
34317;SDS011;20582;52.196;20.952;2022-07-17T12:29:41;3.83;;;1.50;;
34317;SDS011;20582;52.196;20.952;2022-07-17T12:32:08;3.60;;;1.33;;
34317;SDS011;20582;52.196;20.952;2022-07-17T12:34:36;4.28;;;1.67;;
34317;SDS011;20582;52.196;20.952;2022-07-17T12:37:02;3.63;;;1.50;;
34317;SDS011;20582;52.196;20.952;2022-07-17T12:39:29;2.72;;;1.25;;
34317;SDS011;20582;52.196;20.952;2022-07-17T12:41:55;5.10;;;1.70;;
34317;SDS011;20582;52.196;20.952;2022-07-17T12:44:22;3.20;;;1.55;;
34317;SDS011;20582;52.196;20.952;2022-07-17T12:46:48;3.95;;;1.10;;
34317;SDS011;20582;52.196;20.952;2022-07-17T12:49:14;2.80;;;1.40;;
34317;SDS011;20582;52.196;20.952;2022-07-17T12:51:40;3.25;;;1.60;;
34317;SDS011;20582;52.196;20.952;2022-07-17T12:54:26;4.93;;;1.46;;
34317;SDS011;20582;52.196;20.952;2022-07-17T12:56:52;1.90;;;1.42;;
34317;SDS011;20582;52.196;20.952;2022-07-17T12:59:18;4.13;;;1.35;;
34317;SDS011;20582;52.196;20.952;2022-07-17T13:01:46;3.85;;;1.40;;
34317;SDS011;20582;52.196;20.952;2022-07-17T13:04:12;1.70;;;1.02;;
34317;SDS011;20582;52.196;20.952;2022-07-17T13:06:38;4.38;;;1.45;;
34317;SDS011;20582;52.196;20.952;2022-07-17T13:09:04;3.00;;;1.10;;
34317;SDS011;20582;52.196;20.952;2022-07-17T13:11:30;2.35;;;1.23;;
34317;SDS011;20582;52.196;20.952;2022-07-17T13:13:56;4.95;;;1.50;;
34317;SDS011;20582;52.196;20.952;2022-07-17T13:16:23;2.25;;;1.30;;
34317;SDS011;20582;52.196;20.952;2022-07-17T13:18:49;3.55;;;1.60;;
34317;SDS011;20582;52.196;20.952;2022-07-17T13:21:15;5.30;;;1.80;;
34317;SDS011;20582;52.196;20.952;2022-07-17T13:23:41;4.45;;;1.50;;
34317;SDS011;20582;52.196;20.952;2022-07-17T13:26:07;2.30;;;1.65;;
34317;SDS011;20582;52.196;20.952;2022-07-17T13:28:33;4.53;;;1.35;;
34317;SDS011;20582;52.196;20.952;2022-07-17T13:30:59;3.42;;;1.35;;
34317;SDS011;20582;52.196;20.952;2022-07-17T13:33:25;2.47;;;1.48;;
34317;SDS011;20582;52.196;20.952;2022-07-17T13:35:52;3.75;;;1.50;;
34317;SDS011;20582;52.196;20.952;2022-07-17T13:38:20;4.50;;;1.60;;
34317;SDS011;20582;52.196;20.952;2022-07-17T13:40:46;6.25;;;2.78;;
34317;SDS011;20582;52.196;20.952;2022-07-17T13:43:12;3.17;;;1.45;;
34317;SDS011;20582;52.196;20.952;2022-07-17T13:45:38;5.15;;;1.60;;
34317;SDS011;20582;52.196;20.952;2022-07-17T13:48:04;3.95;;;1.38;;
34317;SDS011;20582;52.196;20.952;2022-07-17T13:50:30;2.13;;;1.10;;
34317;SDS011;20582;52.196;20.952;2022-07-17T13:52:56;4.70;;;1.83;;
34317;SDS011;20582;52.196;20.952;2022-07-17T13:55:22;6.45;;;1.60;;
34317;SDS011;20582;52.196;20.952;2022-07-17T13:57:48;4.32;;;1.25;;
34317;SDS011;20582;52.196;20.952;2022-07-17T14:00:14;2.90;;;1.40;;
34317;SDS011;20582;52.196;20.952;2022-07-17T14:02:42;3.42;;;1.50;;
34317;SDS011;20582;52.196;20.952;2022-07-17T14:05:08;3.55;;;1.50;;
34317;SDS011;20582;52.196;20.952;2022-07-17T14:07:34;3.30;;;1.73;;
34317;SDS011;20582;52.196;20.952;2022-07-17T14:10:00;1.40;;;1.02;;
34317;SDS011;20582;52.196;20.952;2022-07-17T14:12:26;3.25;;;1.30;;
34317;SDS011;20582;52.196;20.952;2022-07-17T14:14:52;4.80;;;1.38;;
34317;SDS011;20582;52.196;20.952;2022-07-17T14:17:19;2.22;;;1.40;;
34317;SDS011;20582;52.196;20.952;2022-07-17T14:19:45;3.33;;;0.90;;
34317;SDS011;20582;52.196;20.952;2022-07-17T14:22:11;2.10;;;1.25;;
34317;SDS011;20582;52.196;20.952;2022-07-17T14:24:37;2.78;;;1.40;;
34317;SDS011;20582;52.196;20.952;2022-07-17T14:27:03;6.40;;;1.38;;
34317;SDS011;20582;52.196;20.952;2022-07-17T14:29:29;3.85;;;1.27;;
34317;SDS011;20582;52.196;20.952;2022-07-17T14:31:55;2.97;;;1.25;;
34317;SDS011;20582;52.196;20.952;2022-07-17T14:34:21;2.13;;;1.30;;
34317;SDS011;20582;52.196;20.952;2022-07-17T14:36:47;2.85;;;1.20;;
34317;SDS011;20582;52.196;20.952;2022-07-17T14:39:14;5.30;;;1.55;;
34317;SDS011;20582;52.196;20.952;2022-07-17T14:41:40;3.65;;;1.48;;
34317;SDS011;20582;52.196;20.952;2022-07-17T14:44:06;4.10;;;1.33;;
34317;SDS011;20582;52.196;20.952;2022-07-17T14:46:33;3.03;;;1.17;;